• Join FlightAware (Why Join?)
  • Login
  • US Flag 
04:31PM EST


 

Airport Tracker/Info


-or-


 

Live Flight TrackerFlight Track Log ✈ AWE801 ✈ 23-Apr-2013 ✈ KCLT - KMCO

Flight Track Log - Related Links

Times and Time Zones

All times are in EDT time to prevent confusion due to time zone crossing. See the AWE801 flight status page for this flight to view local times or setup timezone preferences in your user account.

Time Position Orientation Groundspeed Altitude Reporting Facility
EDT Latitude Longitude Course Direction KTS MPH feet Rate Location/Type
09:43AM 35.2870 -80.9200 23° Northeast 220 253 4,000  Level FlightAware
09:44AM 35.2990 -80.9100 34° Northeast 242 278 4,300 1,560 Climbing FlightAware
09:44AM 35.3050 -80.8930 67° East 258 297 4,800 2,400 Climbing FlightAware
09:44AM 35.3050 -80.8820 90° East 263 303 5,100 3,600 Climbing FlightAware
09:45AM 35.3000 -80.8290 97° East 271 312 7,200 3,180 Climbing FlightAware
09:45AM 35.2860 -80.7860 112° Southeast 292 336 8,600 2,820 Climbing FlightAware
09:46AM 35.2560 -80.7700 156° South 298 343 9,800 2,280 Climbing FlightAware
09:46AM 35.1880 -80.7840 190° South 351 404 11,300 2,520 Climbing FlightAware
09:47AM 35.1220 -80.8000 191° South 383 441 13,400 3,660 Climbing FlightAware
09:48AM 35.0240 -80.8230 191° South 398 458 17,100 3,780 Climbing FlightAware
09:49AM 34.9520 -80.8390 190° South 412 474 19,400 3,240 Climbing FlightAware
09:49AM 34.8670 -80.8590 191° South 431 496 21,700 1,980 Climbing FlightAware
09:50AM 34.7770 -80.8790 190° South 441 507 22,600 540 Climbing FlightAware
09:51AM 34.6920 -80.8990 191° South 441 507 22,600  Level FlightAware
09:52AM 34.6240 -80.9160 192° South 441 507 22,600  Level FlightAware
09:52AM 34.5560 -80.9320 191° South 441 507 22,600  Level FlightAware
09:53AM 34.4880 -80.9480 191° South 441 507 22,600  Level FlightAware
09:54AM 34.4200 -80.9640 191° South 441 507 22,600 4,680 Level FlightAware
09:54AM 34.2060 -80.9660 180° South 511 588 29,700 4,200 Climbing FlightAware
09:55AM 34.0790 -81.0000 193° South 513 590 30,000 900 Climbing FlightAware
09:56AM 33.9550 -81.0310 192° South 504 580 31,400 1,500 Climbing FlightAware
09:57AM 33.8640 -81.0520 191° South 523 602 32,400 1,800 Climbing FlightAware
09:58AM 33.7490 -81.0600 183° South 520 598 34,000 1,080 Climbing FlightAware
09:58AM 33.6510 -81.0630 181° South 511 588 34,000  Level FlightAware
09:59AM 33.5620 -81.0650 181° South 504 580 34,000  Level FlightAware
10:00AM 33.4540 -81.0670 181° South 513 590 34,000  Level FlightAware
10:00AM 33.3580 -81.0700 181° South 514 592 34,000 60 Level FlightAware
10:01AM 33.2520 -81.0730 181° South 509 586 34,100 480 Climbing FlightAware
10:02AM 33.1580 -81.0760 182° South 513 590 34,700 1,260 Climbing FlightAware
10:03AM 33.0510 -81.0790 181° South 511 588 35,900 900 Climbing FlightAware
10:03AM 32.9580 -81.0820 182° South 514 592 36,000 60 Climbing FlightAware
10:04AM 32.8620 -81.0850 182° South 512 589 36,000  Level FlightAware
10:05AM 32.7540 -81.0880 181° South 512 589 36,000  Level FlightAware
10:05AM 32.6630 -81.0900 181° South 510 587 36,000  Level FlightAware
10:06AM 32.5870 -81.0930 182° South 509 586 36,000  Level FlightAware
10:07AM 32.4910 -81.0970 182° South 509 586 36,000  Level FlightAware
10:07AM 32.4110 -81.1000 182° South 509 586 36,000  Level FlightAware
10:08AM 32.3010 -81.1010 180° South 504 580 36,000  Level FlightAware
10:09AM 32.2220 -81.1030 181° South 504 580 36,000  Level FlightAware
10:09AM 32.1010 -81.1090 182° South 501 577 36,000  Level FlightAware
10:10AM 31.9850 -81.1120 181° South 500 575 36,000  Level FlightAware
10:11AM 31.9080 -81.1140 181° South 499 574 36,000  Level FlightAware
10:12AM 31.8120 -81.1170 182° South 497 572 36,000  Level FlightAware
10:12AM 31.7000 -81.1200 181° South 496 571 36,000  Level FlightAware
10:13AM 31.5720 -81.1200 180° South 497 572 36,000 -120 Level FlightAware
10:14AM 31.4740 -81.1190 180° South 496 571 35,900 -120 Descending FlightAware
10:15AM 31.3820 -81.1170 179° South 496 571 35,900  Level FlightAware
10:15AM 31.3040 -81.1150 179° South 496 571 35,900  Level FlightAware
10:16AM 31.2260 -81.1140 179° South 496 571 35,900  Level FlightAware
10:17AM 31.1480 -81.1120 179° South 496 571 35,900  Level FlightAware
10:18AM 31.0500 -81.1100 179° South 496 571 35,900  Level FlightAware
10:18AM 30.9720 -81.1090 179° South 496 571 35,900  Level FlightAware
10:19AM 30.8940 -81.1070 179° South 496 571 35,900  Level FlightAware
10:20AM 30.8160 -81.1060 179° South 496 571 35,900  Level FlightAware
10:20AM 30.7380 -81.1040 179° South 496 571 35,900  Level FlightAware
10:21AM 30.6410 -81.1020 179° South 496 571 35,900  Level FlightAware
10:22AM 30.5630 -81.1000 179° South 496 571 35,900  Level FlightAware
10:22AM 30.4850 -81.0990 179° South 496 571 35,900  Level FlightAware
10:23AM 30.4070 -81.0970 179° South 496 571 35,900  Level FlightAware
10:24AM 30.3290 -81.0960 179° South 496 571 35,900 -4,320 Level FlightAware
10:25AM 29.9911 -81.1181 179° South 494 568 29,000 -5,040 Descending Jacksonville Center
10:26AM 29.8658 -81.1178 180° South 483 556 26,200 -2,880 Descending Jacksonville Center
10:27AM 29.7364 -81.1178 180° South 471 542 23,300 -2,760 Descending Jacksonville Center
10:28AM 29.6111 -81.1178 180° South 459 528 20,700 -2,520 Descending Jacksonville Center
10:29AM 29.4922 -81.1175 180° South 449 517 18,300 -1,500 Descending Jacksonville Center
10:35AM 28.8660 -81.1020 180° South 316 364 10,400 -1,260 Descending FlightAware
10:36AM 28.7720 -81.1270 193° South 279 321 9,300 -960 Descending FlightAware
10:36AM 28.7310 -81.1370 192° South 285 328 8,800 -600 Descending FlightAware
10:37AM 28.7040 -81.1450 195° South 282 325 8,800  Level FlightAware
10:37AM 28.6670 -81.1540 192° South 281 323 8,800  Level FlightAware
10:38AM 28.6460 -81.1590 192° South 281 323 8,800  Level FlightAware
10:38AM 28.6060 -81.1700 194° South 283 326 8,800  Level FlightAware
10:39AM 28.5680 -81.1800 193° South 283 326 8,800  Level FlightAware
10:39AM 28.5350 -81.1870 191° South 279 321 8,800  Level FlightAware
10:39AM 28.5160 -81.1880 183° South 245 282 8,800 -900 Level FlightAware
10:40AM 28.4880 -81.1880 180° South 239 275 8,200 -1,800 Descending FlightAware
10:40AM 28.4380 -81.1880 180° South 224 258 6,700 -1,920 Descending FlightAware
10:41AM 28.4240 -81.1880 180° South 230 265 6,300 -2,100 Descending FlightAware
10:41AM 28.3960 -81.1880 180° South 223 257 5,300 -2,340 Descending FlightAware
10:42AM 28.3490 -81.1880 180° South 227 261 3,600 -2,280 Descending FlightAware
10:42AM 28.3200 -81.1880 180° South 226 260 2,700 -1,980 Descending FlightAware
10:42AM 28.3050 -81.1940 199° South 236 272 2,300 -1,200 Descending FlightAware
10:43AM 28.2950 -81.2080 231° Southwest 236 272 2,100 -840 Descending FlightAware
10:43AM 28.2920 -81.2270 260° West 237 273 1,900 -780 Descending FlightAware
10:43AM 28.2900 -81.2570 266° West 231 266 1,600 -600 Descending FlightAware
10:44AM 28.3010 -81.2890 291° West 199 229 1,400 -240 Descending FlightAware
10:44AM 28.3160 -81.3120 307° West 180 207 1,400  Level FlightAware
10:45AM 28.3230 -81.3180 323° Northwest 166 191 1,400  Level FlightAware
10:45AM 28.3330 -81.3210 345° North 134 154 1,400 -240 Level FlightAware
10:45AM 28.3430 -81.3210 360° North 133 153 1,300 -720 Descending FlightAware
10:46AM 28.3620 -81.3220 357° North 133 153 900 -780 Descending FlightAware
10:46AM 28.3770 -81.3220 360° North 129 148 600 -660 Descending FlightAware
10:46AM 28.3950 -81.3230 357° North 131 151 300 -600 Descending FlightAware
10:47AM 28.4070 -81.3230 360° North 130 150 100 -600 Descending FlightAware